createdAt,value
2018-07-25T00:00:29.076Z,66.56
2018-07-25T00:01:09.648Z,66.66
2018-07-25T00:01:50.217Z,66.66
2018-07-25T00:02:30.764Z,66.66
2018-07-25T00:03:11.362Z,66.56
2018-07-25T00:03:51.918Z,66.95
2018-07-25T00:04:32.509Z,67.14
2018-07-25T00:05:13.051Z,66.95
2018-07-25T00:05:53.618Z,66.95
2018-07-25T00:06:34.192Z,67.01
2018-07-25T00:07:14.752Z,67.05
2018-07-25T00:07:55.319Z,66.95
2018-07-25T00:08:35.885Z,66.95
2018-07-25T00:09:16.463Z,66.95
2018-07-25T00:09:57.037Z,66.75
2018-07-25T00:10:37.619Z,66.72
2018-07-25T00:11:18.195Z,67.05
2018-07-25T00:11:58.749Z,67.01
2018-07-25T00:12:39.331Z,66.75
2018-07-25T00:13:19.897Z,67.01
2018-07-25T00:14:00.460Z,66.91
2018-07-25T00:14:41.029Z,66.82
2018-07-25T00:15:21.585Z,66.91
2018-07-25T00:16:02.161Z,66.82
2018-07-25T00:16:42.742Z,66.53
2018-07-25T00:17:23.332Z,66.91
2018-07-25T00:18:03.896Z,66.82
2018-07-25T00:18:44.445Z,67.21
2018-07-25T00:19:25.068Z,67.21
2018-07-25T00:20:05.630Z,67.59
2018-07-25T00:20:46.195Z,67.3
2018-07-25T00:21:26.775Z,67.3
2018-07-25T00:22:07.347Z,67.3
2018-07-25T00:22:47.900Z,67.49
2018-07-25T00:23:28.451Z,67.69
2018-07-25T00:24:09.025Z,67.4
2018-07-25T00:24:49.624Z,67.98
2018-07-25T00:25:30.199Z,67.88
2018-07-25T00:26:10.804Z,67.69
2018-07-25T00:26:51.374Z,67.98
2018-07-25T00:27:31.949Z,68.17
2018-07-25T00:28:12.509Z,68.37
2018-07-25T00:28:53.058Z,68.37
2018-07-25T00:29:33.687Z,68.08
2018-07-25T00:30:14.243Z,68.17
2018-07-25T00:30:54.807Z,67.69
2018-07-25T00:31:35.410Z,67.69
2018-07-25T00:32:15.993Z,67.98
2018-07-25T00:32:56.565Z,68.08
2018-07-25T00:33:37.145Z,68.37
2018-07-25T00:34:17.705Z,67.98
2018-07-25T00:34:58.267Z,67.98
2018-07-25T00:35:38.837Z,67.98
2018-07-25T00:36:19.483Z,67.88
2018-07-25T00:36:59.974Z,68.08
2018-07-25T00:37:40.525Z,67.88
2018-07-25T00:38:21.086Z,67.98
2018-07-25T00:39:01.661Z,67.88
2018-07-25T00:39:42.205Z,68.37
2018-07-25T00:40:22.808Z,68.27
2018-07-25T00:41:03.373Z,67.69
2018-07-25T00:41:43.948Z,67.98
2018-07-25T00:42:24.503Z,68.27
2018-07-25T00:43:05.076Z,67.98
2018-07-25T00:43:45.664Z,68.17
2018-07-25T00:44:26.233Z,68.56
2018-07-25T00:45:06.865Z,68.37
2018-07-25T00:45:47.461Z,68.08
2018-07-25T00:46:28.029Z,67.88
2018-07-25T00:47:08.589Z,68.27
2018-07-25T00:47:49.148Z,67.88
2018-07-25T00:48:29.722Z,68.08
2018-07-25T00:49:10.300Z,67.88
2018-07-25T00:49:50.871Z,67.98
2018-07-25T00:50:31.440Z,68.56
2018-07-25T00:51:11.996Z,68.17
2018-07-25T00:51:52.557Z,68.56
2018-07-25T00:52:33.141Z,68.27
2018-07-25T00:53:13.714Z,68.17
2018-07-25T00:53:54.297Z,67.98
2018-07-25T00:54:34.876Z,67.98
2018-07-25T00:55:15.437Z,67.98
2018-07-25T00:55:56.195Z,68.08
2018-07-25T00:56:36.745Z,68.37
2018-07-25T00:57:17.320Z,68.17
2018-07-25T00:57:57.893Z,68.17
2018-07-25T00:58:38.468Z,68.37
2018-07-25T00:59:19.030Z,68.43
2018-07-25T00:59:59.595Z,68.14
2018-07-25T01:00:40.160Z,68.14
2018-07-25T01:01:20.731Z,68.17
2018-07-25T01:02:01.304Z,68.43
2018-07-25T01:02:41.858Z,68.27
2018-07-25T01:03:22.423Z,68.17
2018-07-25T01:04:02.983Z,68.56
2018-07-25T01:04:43.550Z,68.62
2018-07-25T01:05:24.118Z,68.91
2018-07-25T01:06:04.697Z,68.82
2018-07-25T01:06:45.265Z,69.01
2018-07-25T01:07:25.826Z,68.43
2018-07-25T01:08:06.409Z,69.01
2018-07-25T01:08:46.968Z,68.91
2018-07-25T01:09:27.552Z,68.82
2018-07-25T01:10:08.135Z,69.2
2018-07-25T01:10:48.705Z,69.49
2018-07-25T01:11:29.275Z,69.3
2018-07-25T01:12:09.852Z,69.49
2018-07-25T01:12:50.460Z,69.1
2018-07-25T01:13:31.077Z,69.2
2018-07-25T01:14:11.668Z,69.2
2018-07-25T01:14:52.270Z,69.4
2018-07-25T01:15:32.849Z,68.91
2018-07-25T01:16:13.408Z,69.2
2018-07-25T01:16:53.988Z,69.68
2018-07-25T01:17:34.553Z,69.59
2018-07-25T01:18:15.114Z,69.78
2018-07-25T01:18:55.687Z,69.3
2018-07-25T01:19:36.255Z,69.78
2018-07-25T01:20:16.815Z,69.78
2018-07-25T01:20:57.424Z,69.78
2018-07-25T01:21:37.963Z,69.98
2018-07-25T01:22:18.550Z,69.78
2018-07-25T01:22:59.103Z,69.88
2018-07-25T01:23:39.675Z,69.98
2018-07-25T01:24:20.245Z,69.49
2018-07-25T01:25:00.820Z,69.78
2018-07-25T01:25:41.407Z,69.68
2018-07-25T01:26:21.991Z,69.88
2018-07-25T01:27:02.573Z,69.88
2018-07-25T01:27:43.155Z,69.59
2018-07-25T01:28:23.717Z,69.68
2018-07-25T01:29:04.381Z,69.88
2018-07-25T01:29:44.929Z,69.88
2018-07-25T01:30:25.517Z,69.68
2018-07-25T01:31:06.083Z,69.78
2018-07-25T01:31:46.633Z,69.78
2018-07-25T01:32:27.192Z,69.68
2018-07-25T01:33:07.746Z,69.68
2018-07-25T01:33:48.313Z,69.68
2018-07-25T01:34:28.887Z,69.98
2018-07-25T01:35:09.489Z,70.46
2018-07-25T01:35:50.056Z,70.65
2018-07-25T01:36:30.639Z,69.88
2018-07-25T01:37:11.273Z,70.26
2018-07-25T01:37:51.841Z,70.23
2018-07-25T01:38:32.405Z,70.26
2018-07-25T01:39:12.972Z,70.72
2018-07-25T01:39:53.546Z,70.07
2018-07-25T01:40:34.107Z,70.07
2018-07-25T01:41:14.687Z,70.26
2018-07-25T01:41:55.261Z,70.46
2018-07-25T01:42:35.849Z,70.46
2018-07-25T01:43:16.414Z,70.46
2018-07-25T01:43:56.965Z,70.46
2018-07-25T01:44:37.544Z,70.42
2018-07-25T01:45:18.094Z,70.46
2018-07-25T01:45:58.671Z,70.32
2018-07-25T01:46:39.253Z,70.62
2018-07-25T01:47:19.827Z,70.62
2018-07-25T01:48:00.401Z,70.72
2018-07-25T01:48:40.989Z,70.81
2018-07-25T01:49:21.553Z,70.62
2018-07-25T01:50:02.142Z,70.9
2018-07-25T01:50:42.710Z,70.62
2018-07-25T01:51:23.286Z,70.72
2018-07-25T01:52:03.854Z,70.62
2018-07-25T01:52:44.407Z,71
2018-07-25T01:53:24.975Z,71.1
2018-07-25T01:54:05.546Z,70.81
2018-07-25T01:54:46.084Z,71
2018-07-25T01:55:26.632Z,70.9
2018-07-25T01:56:07.192Z,71.1
2018-07-25T01:56:47.933Z,71.1
2018-07-25T01:57:28.492Z,71.39
2018-07-25T01:58:09.044Z,70.9
2018-07-25T01:58:49.611Z,71
2018-07-25T01:59:30.203Z,70.81
2018-07-25T02:00:10.800Z,71
2018-07-25T02:00:51.385Z,71.1
2018-07-25T02:01:32.101Z,71.1
2018-07-25T02:02:12.550Z,71.3
2018-07-25T02:02:53.097Z,71.2
2018-07-25T02:03:33.732Z,71
2018-07-25T02:04:14.288Z,71.1
2018-07-25T02:04:54.854Z,71.1
2018-07-25T02:05:35.432Z,71.2
2018-07-25T02:06:15.996Z,71.3
2018-07-25T02:06:56.619Z,71
2018-07-25T02:07:37.244Z,70.9
2018-07-25T02:08:17.884Z,71.1
2018-07-25T02:08:58.439Z,71.39
2018-07-25T02:09:38.992Z,71
2018-07-25T02:10:19.625Z,71.3
2018-07-25T02:11:00.189Z,71.2
2018-07-25T02:11:40.754Z,71.88
2018-07-25T02:12:21.346Z,71.58
2018-07-25T02:13:02.006Z,72.06
2018-07-25T02:13:42.597Z,72.06
2018-07-25T02:14:23.146Z,71.97
2018-07-25T02:15:03.716Z,71.94
2018-07-25T02:15:44.295Z,72.13
2018-07-25T02:16:25.703Z,71.78
2018-07-25T02:17:06.246Z,72.16
2018-07-25T02:17:46.823Z,72.06
2018-07-25T02:18:27.428Z,72.16
2018-07-25T02:19:08.002Z,72.36
2018-07-25T02:19:48.578Z,72.26
2018-07-25T02:20:29.145Z,72.06
2018-07-25T02:21:09.696Z,72.06
2018-07-25T02:21:50.261Z,72.64
2018-07-25T02:22:30.817Z,72.55
2018-07-25T02:23:11.381Z,72.36
2018-07-25T02:23:51.933Z,72.06
2018-07-25T02:24:32.492Z,72.16
2018-07-25T02:25:13.057Z,72.06
2018-07-25T02:25:53.650Z,72.26
2018-07-25T02:26:34.237Z,72.45
2018-07-25T02:27:14.816Z,72.16
2018-07-25T02:27:55.369Z,72.36
2018-07-25T02:28:35.937Z,72.26
2018-07-25T02:29:16.503Z,71.88
2018-07-25T02:29:57.059Z,71.97
2018-07-25T02:30:37.641Z,71.88
2018-07-25T02:31:18.215Z,71.58
2018-07-25T02:31:58.795Z,71.97
2018-07-25T02:32:39.367Z,71.68
2018-07-25T02:33:19.935Z,71.68
2018-07-25T02:34:00.511Z,71.68
2018-07-25T02:34:41.090Z,71.78
2018-07-25T02:35:21.674Z,71.68
2018-07-25T02:36:02.245Z,72.06
2018-07-25T02:36:42.821Z,71.88
2018-07-25T02:37:23.403Z,71.48
2018-07-25T02:38:03.966Z,71.58
2018-07-25T02:38:44.532Z,72.06
2018-07-25T02:39:25.116Z,71.88
2018-07-25T02:40:05.696Z,72.16
2018-07-25T02:40:46.252Z,72.16
2018-07-25T02:41:26.876Z,72.06
2018-07-25T02:42:07.408Z,72.36
2018-07-25T02:42:47.996Z,72.45
2018-07-25T02:43:28.578Z,72.55
2018-07-25T02:44:09.162Z,72.61
2018-07-25T02:44:49.741Z,72.71
2018-07-25T02:45:30.303Z,72.36
2018-07-25T02:46:10.879Z,72.64
2018-07-25T02:46:51.445Z,72.45
2018-07-25T02:47:31.980Z,72.45
2018-07-25T02:48:12.546Z,72.16
2018-07-25T02:48:53.099Z,72.26
2018-07-25T02:49:33.678Z,72.26
2018-07-25T02:50:14.218Z,72.26
2018-07-25T02:50:54.785Z,72.26
2018-07-25T02:51:35.387Z,72.26
2018-07-25T02:52:15.907Z,72.26
2018-07-25T02:52:56.486Z,71.78
2018-07-25T02:53:37.048Z,71.74
2018-07-25T02:54:17.620Z,72.16
2018-07-25T02:54:58.183Z,72.26
2018-07-25T02:55:38.749Z,72.22
2018-07-25T02:56:19.312Z,72.13
2018-07-25T02:56:59.908Z,72.16
2018-07-25T02:57:40.434Z,72.13
2018-07-25T02:58:21.007Z,72.06
2018-07-25T02:59:01.565Z,72.22
2018-07-25T02:59:42.129Z,72.26
2018-07-25T03:00:22.694Z,72.45
2018-07-25T03:01:03.263Z,72.36
2018-07-25T03:01:43.838Z,72.06
2018-07-25T03:02:24.413Z,72.16
2018-07-25T03:03:04.966Z,72.16
2018-07-25T03:03:45.539Z,72.16
2018-07-25T03:04:26.120Z,72.36
2018-07-25T03:05:06.702Z,72.16
2018-07-25T03:05:47.296Z,72.45
2018-07-25T03:06:27.855Z,72.42
2018-07-25T03:07:08.428Z,72.36
2018-07-25T03:07:49.017Z,72.45
2018-07-25T03:08:29.557Z,72.61
2018-07-25T03:09:10.278Z,72.52
2018-07-25T03:09:50.701Z,72.52
2018-07-25T03:10:31.278Z,72.22
2018-07-25T03:11:11.851Z,72.52
2018-07-25T03:11:52.404Z,72.61
2018-07-25T03:12:32.978Z,72.61
2018-07-25T03:13:13.558Z,72.42
2018-07-25T03:13:54.128Z,72.71
2018-07-25T03:14:34.713Z,72.8
2018-07-25T03:15:15.270Z,72.8
2018-07-25T03:15:55.838Z,72.61
2018-07-25T03:16:36.485Z,72.8
2018-07-25T03:17:16.966Z,73
2018-07-25T03:17:57.541Z,72.8
2018-07-25T03:18:38.116Z,73
2018-07-25T03:19:18.692Z,73.28
2018-07-25T03:19:59.242Z,73.19
2018-07-25T03:20:39.800Z,73.48
2018-07-25T03:21:20.350Z,73.19
2018-07-25T03:22:00.936Z,73.09
2018-07-25T03:22:41.504Z,73.19
2018-07-25T03:23:22.057Z,73.09
2018-07-25T03:24:02.622Z,73.19
2018-07-25T03:24:43.214Z,73
2018-07-25T03:25:23.776Z,73.19
2018-07-25T03:26:04.336Z,73.19
2018-07-25T03:26:44.914Z,73
2018-07-25T03:27:25.482Z,73.19
2018-07-25T03:28:06.103Z,73.67
2018-07-25T03:28:46.674Z,73.67
2018-07-25T03:29:27.246Z,73.03
2018-07-25T03:30:07.807Z,73
2018-07-25T03:30:48.363Z,73.48
2018-07-25T03:31:29.101Z,73.19
2018-07-25T03:32:09.527Z,73.67
2018-07-25T03:32:50.094Z,73.86
2018-07-25T03:33:30.671Z,73.48
2018-07-25T03:34:11.245Z,72.9
2018-07-25T03:34:51.802Z,73.48
2018-07-25T03:35:32.373Z,73.77
2018-07-25T03:36:12.945Z,73.58
2018-07-25T03:36:53.514Z,73.86
2018-07-25T03:37:34.162Z,73.67
2018-07-25T03:38:14.651Z,73.77
2018-07-25T03:38:55.209Z,73.71
2018-07-25T03:39:35.767Z,73.19
2018-07-25T03:40:16.329Z,73.19
2018-07-25T03:40:56.896Z,73.48
2018-07-25T03:41:37.458Z,73.86
2018-07-25T03:42:18.011Z,73.96
2018-07-25T03:42:58.568Z,73.38
2018-07-25T03:43:39.123Z,73.67
2018-07-25T03:44:19.684Z,73.96
2018-07-25T03:45:00.252Z,73.38
2018-07-25T03:45:40.816Z,73
2018-07-25T03:46:21.401Z,73.19
2018-07-25T03:47:01.965Z,73.48
2018-07-25T03:47:42.531Z,73.77
2018-07-25T03:48:23.126Z,73.67
2018-07-25T03:49:03.719Z,73.58
2018-07-25T03:49:44.263Z,73.58
2018-07-25T03:50:24.828Z,73.58
2018-07-25T03:51:05.373Z,72.9
2018-07-25T03:51:45.935Z,73.58
2018-07-25T03:52:26.502Z,73.96
2018-07-25T03:53:07.064Z,73.9
2018-07-25T03:53:47.633Z,73.32
2018-07-25T03:54:28.193Z,73.8
2018-07-25T03:55:08.768Z,73.71
2018-07-25T03:55:49.325Z,73.86
2018-07-25T03:56:29.896Z,73.71
2018-07-25T03:57:10.467Z,73.9
2018-07-25T03:57:51.035Z,73.52
2018-07-25T03:58:31.601Z,73.42
2018-07-25T03:59:12.175Z,73.71
2018-07-25T03:59:52.735Z,73.77
2018-07-25T04:00:33.286Z,73.8
2018-07-25T04:01:13.828Z,73.58
2018-07-25T04:01:54.453Z,73.8
2018-07-25T04:02:34.982Z,73.61
2018-07-25T04:03:15.495Z,73.77
2018-07-25T04:03:56.036Z,73.42
2018-07-25T04:04:36.594Z,73.42
2018-07-25T04:05:17.161Z,73.61
2018-07-25T04:05:57.755Z,73.8
2018-07-25T04:06:38.338Z,73.77
2018-07-25T04:07:18.886Z,73.61
2018-07-25T04:07:59.462Z,73.32
2018-07-25T04:08:40.023Z,73.67
2018-07-25T04:09:20.604Z,73.61
2018-07-25T04:10:01.163Z,73.77
2018-07-25T04:10:41.740Z,73.9
2018-07-25T04:11:22.304Z,73.58
2018-07-25T04:12:02.844Z,73.13
2018-07-25T04:12:43.411Z,73.28
2018-07-25T04:13:23.971Z,73.13
2018-07-25T04:14:04.552Z,73.52
2018-07-25T04:14:45.107Z,73.32
2018-07-25T04:15:25.687Z,73
2018-07-25T04:16:06.251Z,73.71
2018-07-25T04:16:46.815Z,73.71
2018-07-25T04:17:27.393Z,73.61
2018-07-25T04:18:07.966Z,73.61
2018-07-25T04:18:48.533Z,73.28
2018-07-25T04:19:29.130Z,73.52
2018-07-25T04:20:09.663Z,73.22
2018-07-25T04:20:50.230Z,72.55
2018-07-25T04:21:30.780Z,72.55
2018-07-25T04:22:11.360Z,72.64
2018-07-25T04:22:51.936Z,72.36
2018-07-25T04:23:32.507Z,72.74
2018-07-25T04:24:13.085Z,72.94
2018-07-25T04:24:53.656Z,73.13
2018-07-25T04:25:34.219Z,72.64
2018-07-25T04:26:14.826Z,73.03
2018-07-25T04:26:55.387Z,72.26
2018-07-25T04:27:35.939Z,72.06
2018-07-25T04:28:16.487Z,71.78
2018-07-25T04:28:57.051Z,72.26
2018-07-25T04:29:37.620Z,71.88
2018-07-25T04:30:18.276Z,71.88
2018-07-25T04:30:58.846Z,72.26
2018-07-25T04:31:39.400Z,71.88
2018-07-25T04:32:19.981Z,71.88
2018-07-25T04:33:00.613Z,71.97
2018-07-25T04:33:41.124Z,72.26
2018-07-25T04:34:21.695Z,72.45
2018-07-25T04:35:02.253Z,72.55
2018-07-25T04:35:42.858Z,72.06
2018-07-25T04:36:23.376Z,72.55
2018-07-25T04:37:03.935Z,72.16
2018-07-25T04:37:44.501Z,71.88
2018-07-25T04:38:25.052Z,71.78
2018-07-25T04:39:05.620Z,71.88
2018-07-25T04:39:46.213Z,72.06
2018-07-25T04:40:26.780Z,71.88
2018-07-25T04:41:07.342Z,72.06
2018-07-25T04:41:47.899Z,71.78
2018-07-25T04:42:28.505Z,71.88
2018-07-25T04:43:09.226Z,71.97
2018-07-25T04:43:49.793Z,72.26
2018-07-25T04:44:30.360Z,71.97
2018-07-25T04:45:10.940Z,72.26
2018-07-25T04:45:51.574Z,71.97
2018-07-25T04:46:32.167Z,71.88
2018-07-25T04:47:12.688Z,71.81
2018-07-25T04:47:53.259Z,72.16
2018-07-25T04:48:33.850Z,71.97
2018-07-25T04:49:14.436Z,71.81
2018-07-25T04:49:55.000Z,71.97
2018-07-25T04:50:35.575Z,71.97
2018-07-25T04:51:16.147Z,71.91
2018-07-25T04:51:56.712Z,71.91
2018-07-25T04:52:37.279Z,72.26
2018-07-25T04:53:17.860Z,71.78
2018-07-25T04:53:58.421Z,72.1
2018-07-25T04:54:39.018Z,71.14
2018-07-25T04:55:19.595Z,70.75
2018-07-25T04:56:00.189Z,70.46
2018-07-25T04:56:40.733Z,71.14
2018-07-25T04:57:21.323Z,70.75
2018-07-25T04:58:01.918Z,70.46
2018-07-25T04:58:42.486Z,71.23
2018-07-25T04:59:23.049Z,71.81
2018-07-25T05:00:03.625Z,71.62
2018-07-25T05:00:44.187Z,72.1
2018-07-25T05:01:24.768Z,71.52
2018-07-25T05:02:05.336Z,71.72
2018-07-25T05:02:45.896Z,71.91
2018-07-25T05:03:26.485Z,71.91
2018-07-25T05:04:07.077Z,71.72
2018-07-25T05:04:47.636Z,70.75
2018-07-25T05:05:28.187Z,70.36
2018-07-25T05:06:08.760Z,70.65
2018-07-25T05:06:49.317Z,70.65
2018-07-25T05:07:29.883Z,70.68
2018-07-25T05:08:10.451Z,70.5
2018-07-25T05:08:51.013Z,70.3
2018-07-25T05:09:31.586Z,70.1
2018-07-25T05:10:12.143Z,70.59
2018-07-25T05:10:52.710Z,70.5
2018-07-25T05:11:33.276Z,70.01
2018-07-25T05:12:13.848Z,69.72
2018-07-25T05:12:54.421Z,69.98
2018-07-25T05:13:34.993Z,69.82
2018-07-25T05:14:15.554Z,69.72
2018-07-25T05:14:56.129Z,69.88
2018-07-25T05:15:36.713Z,70.2
2018-07-25T05:16:17.283Z,70.3
2018-07-25T05:16:57.840Z,70.2
2018-07-25T05:17:38.436Z,70.2
2018-07-25T05:18:18.958Z,70.1
2018-07-25T05:18:59.551Z,69.82
2018-07-25T05:19:40.121Z,69.24
2018-07-25T05:20:20.683Z,69.14
2018-07-25T05:21:01.259Z,69.24
2018-07-25T05:21:41.811Z,68.85
2018-07-25T05:22:22.384Z,68.85
2018-07-25T05:23:02.941Z,69.24
2018-07-25T05:23:43.519Z,69.24
2018-07-25T05:24:24.094Z,69.14
2018-07-25T05:25:04.661Z,68.66
2018-07-25T05:25:45.229Z,69.04
2018-07-25T05:26:25.779Z,69.33
2018-07-25T05:27:06.326Z,69.24
2018-07-25T05:27:46.921Z,69.24
2018-07-25T05:28:27.435Z,68.75
2018-07-25T05:29:08.004Z,68.56
2018-07-25T05:29:48.562Z,68.85
2018-07-25T05:30:29.149Z,68.85
2018-07-25T05:31:09.716Z,68.46
2018-07-25T05:31:50.296Z,68.56
2018-07-25T05:32:30.871Z,68.27
2018-07-25T05:33:11.448Z,68.17
2018-07-25T05:33:52.018Z,68.37
2018-07-25T05:34:32.612Z,68.17
2018-07-25T05:35:13.191Z,68.66
2018-07-25T05:35:53.759Z,68.08
2018-07-25T05:36:34.322Z,67.88
2018-07-25T05:37:14.874Z,67.43
2018-07-25T05:37:55.464Z,67.69
2018-07-25T05:38:36.000Z,67.98
2018-07-25T05:39:16.573Z,67.82
2018-07-25T05:39:57.123Z,67.63
2018-07-25T05:40:37.722Z,67.33
2018-07-25T05:41:18.286Z,67.05
2018-07-25T05:41:58.855Z,66.95
2018-07-25T05:42:39.441Z,67.14
2018-07-25T05:43:19.969Z,66.95
2018-07-25T05:44:00.547Z,66.5
2018-07-25T05:44:41.115Z,66.98
2018-07-25T05:45:21.686Z,66.69
2018-07-25T05:46:02.294Z,65.95
2018-07-25T05:46:42.865Z,65.95
2018-07-25T05:47:23.422Z,65.47
2018-07-25T05:48:03.997Z,65.08
2018-07-25T05:48:44.555Z,64.59
2018-07-25T05:49:25.139Z,65.01
2018-07-25T05:50:05.692Z,64.5
2018-07-25T05:50:46.264Z,64.24
2018-07-25T05:51:26.829Z,64.53
2018-07-25T05:52:07.396Z,64.72
2018-07-25T05:52:47.960Z,63.69
2018-07-25T05:53:28.524Z,63.1
2018-07-25T05:54:09.086Z,63.4
2018-07-25T05:54:49.653Z,63.1
2018-07-25T05:55:30.223Z,62.95
2018-07-25T05:56:10.803Z,62.36
2018-07-25T05:56:51.473Z,62.07
2018-07-25T05:57:31.934Z,61.78
2018-07-25T05:58:12.506Z,61.88
2018-07-25T05:58:53.092Z,62.49
2018-07-25T05:59:33.667Z,62.29
2018-07-25T06:00:14.244Z,62.39
2018-07-25T06:00:54.817Z,62.19
2018-07-25T06:01:35.421Z,61.61
2018-07-25T06:02:16.003Z,62.23
2018-07-25T06:02:56.616Z,61.65
2018-07-25T06:03:37.170Z,60.97
2018-07-25T06:04:17.779Z,60.61
2018-07-25T06:04:58.299Z,60.22
2018-07-25T06:05:38.933Z,59.05
2018-07-25T06:06:19.509Z,59.05
2018-07-25T06:07:00.083Z,59.25
2018-07-25T06:07:40.647Z,58.76
2018-07-25T06:08:21.205Z,58.47
2018-07-25T06:09:01.888Z,57.5
2018-07-25T06:09:42.457Z,57.11
2018-07-25T06:10:23.029Z,57.98
2018-07-25T06:11:03.608Z,57.89
2018-07-25T06:11:44.244Z,57.98
2018-07-25T06:12:25.484Z,58.69
2018-07-25T06:13:07.209Z,58.11
2018-07-25T06:13:47.953Z,57.04
2018-07-25T06:14:28.476Z,57.23
2018-07-25T06:15:09.135Z,57.95
2018-07-25T06:15:49.711Z,58.53
2018-07-25T06:16:30.300Z,57.95
2018-07-25T06:17:10.867Z,56.49
2018-07-25T06:17:51.437Z,57.07
2018-07-25T06:18:31.990Z,57.75
2018-07-25T06:19:12.613Z,57.78
2018-07-25T06:19:53.194Z,57.75
2018-07-25T06:20:33.898Z,57.68
2018-07-25T06:21:14.381Z,57.29
2018-07-25T06:21:54.975Z,56.9
2018-07-25T06:22:35.561Z,58.07
2018-07-25T06:23:16.129Z,57.03
2018-07-25T06:23:56.710Z,57.12
2018-07-25T06:24:37.277Z,56.93
2018-07-25T06:25:17.849Z,56.05
2018-07-25T06:25:58.485Z,54.69
2018-07-25T06:26:39.002Z,54.03
2018-07-25T06:27:19.568Z,54.72
2018-07-25T06:28:00.166Z,54.91
2018-07-25T06:28:40.716Z,53.65
2018-07-25T06:29:21.273Z,53.45
2018-07-25T06:30:01.850Z,52.77
2018-07-25T06:30:42.426Z,53.65
2018-07-25T06:31:23.062Z,53.65
2018-07-25T06:32:03.586Z,53.85
2018-07-25T06:32:44.170Z,54.36
2018-07-25T06:33:24.723Z,54.36
2018-07-25T06:34:05.289Z,54.46
2018-07-25T06:34:45.906Z,54.85
2018-07-25T06:35:26.435Z,54.46
2018-07-25T06:36:07.014Z,52.99
2018-07-25T06:36:47.600Z,52.89
2018-07-25T06:37:28.153Z,53.7
2018-07-25T06:38:08.733Z,52.34
2018-07-25T06:38:49.335Z,51.95
2018-07-25T06:39:29.915Z,52.73
2018-07-25T06:40:10.492Z,53.02
2018-07-25T06:40:51.063Z,51.95
2018-07-25T06:41:31.660Z,51.75
2018-07-25T06:42:12.237Z,51.36
2018-07-25T06:42:52.807Z,52.14
2018-07-25T06:43:33.413Z,52.24
2018-07-25T06:44:13.958Z,51.95
2018-07-25T06:44:54.549Z,52.04
2018-07-25T06:45:35.116Z,51.75
2018-07-25T06:46:15.696Z,52.14
2018-07-25T06:46:56.278Z,52.73
2018-07-25T06:47:36.860Z,52.44
2018-07-25T06:48:17.458Z,53.05
2018-07-25T06:48:58.027Z,52.95
2018-07-25T06:49:38.601Z,52.07
2018-07-25T06:50:19.188Z,52.17
2018-07-25T06:50:59.832Z,52.07
2018-07-25T06:51:40.386Z,51.58
2018-07-25T06:52:21.000Z,51.48
2018-07-25T06:53:01.588Z,51.31
2018-07-25T06:53:42.180Z,49.44
2018-07-25T06:54:22.777Z,50.51
2018-07-25T06:55:03.384Z,50.6
2018-07-25T06:55:43.950Z,51.48
2018-07-25T06:56:24.521Z,51.78
2018-07-25T06:57:05.108Z,51.58
2018-07-25T06:57:45.690Z,51.19
2018-07-25T06:58:26.288Z,51.48
2018-07-25T06:59:06.828Z,51.8
2018-07-25T06:59:47.417Z,50.31
2018-07-25T07:00:28.007Z,49.15
2018-07-25T07:01:08.584Z,49.05
2018-07-25T07:01:49.127Z,48.75
2018-07-25T07:02:29.706Z,48.75
2018-07-25T07:03:10.282Z,49.63
2018-07-25T07:03:50.905Z,49.15
2018-07-25T07:04:31.475Z,48.75
2018-07-25T07:05:12.174Z,47.97
2018-07-25T07:05:52.748Z,50.31
2018-07-25T07:06:33.308Z,48.17
2018-07-25T07:07:13.891Z,50.21
2018-07-25T07:07:54.465Z,49.34
2018-07-25T07:08:35.052Z,48.75
2018-07-25T07:09:15.621Z,49.54
2018-07-25T07:09:56.195Z,48.75
2018-07-25T07:10:36.762Z,48.36
2018-07-25T07:11:17.342Z,47.97
2018-07-25T07:11:57.932Z,48.46
2018-07-25T07:12:38.504Z,47.61
2018-07-25T07:13:19.090Z,47.97
2018-07-25T07:13:59.676Z,49.54
2018-07-25T07:14:40.264Z,51.12
2018-07-25T07:15:20.884Z,51.31
2018-07-25T07:16:01.428Z,51.41
2018-07-25T07:16:42.002Z,51.8
2018-07-25T07:17:22.591Z,51.12
2018-07-25T07:18:03.149Z,51.02
2018-07-25T07:18:43.725Z,49.85
2018-07-25T07:19:24.602Z,48.39
2018-07-25T07:20:05.199Z,48.39
2018-07-25T07:20:45.825Z,49.56
2018-07-25T07:21:26.472Z,50.56
2018-07-25T07:22:07.062Z,49.17
2018-07-25T07:22:47.755Z,49
2018-07-25T07:23:28.780Z,48.41
2018-07-25T07:24:09.375Z,48.61
2018-07-25T07:24:49.904Z,47.92
2018-07-25T07:25:30.489Z,48.02
2018-07-25T07:26:11.078Z,48.41
2018-07-25T07:26:51.657Z,48.32
2018-07-25T07:27:32.224Z,48.51
2018-07-25T07:28:12.830Z,48.8
2018-07-25T07:28:53.405Z,49.78
2018-07-25T07:29:33.971Z,49.8
2018-07-25T07:30:14.551Z,49.49
2018-07-25T07:30:55.139Z,48.44
2018-07-25T07:31:35.724Z,47.75
2018-07-25T07:32:16.312Z,47.36
2018-07-25T07:32:56.894Z,46.39
2018-07-25T07:33:37.475Z,45.8
2018-07-25T07:34:18.047Z,46.97
2018-07-25T07:34:58.626Z,48.54
2018-07-25T07:35:39.194Z,47.66
2018-07-25T07:36:19.764Z,47.56
2018-07-25T07:37:00.340Z,49.22
2018-07-25T07:37:40.917Z,48.44
2018-07-25T07:38:21.487Z,49.22
2018-07-25T07:39:02.088Z,48.44
2018-07-25T07:39:42.661Z,48.63
2018-07-25T07:40:23.249Z,48.44
2018-07-25T07:41:03.841Z,47.95
2018-07-25T07:41:44.424Z,47.75
2018-07-25T07:42:25.003Z,47.77
2018-07-25T07:43:05.588Z,47.77
2018-07-25T07:43:46.188Z,47.28
2018-07-25T07:44:26.771Z,47.87
2018-07-25T07:45:07.339Z,47.67
2018-07-25T07:45:47.932Z,45.82
2018-07-25T07:46:28.492Z,46.01
2018-07-25T07:47:09.072Z,45.14
2018-07-25T07:47:49.648Z,44.84
2018-07-25T07:48:30.290Z,45.33
2018-07-25T07:49:10.890Z,46.21
2018-07-25T07:49:51.476Z,45.92
2018-07-25T07:50:32.064Z,45.82
2018-07-25T07:51:12.638Z,46.7
2018-07-25T07:51:53.220Z,45.94
2018-07-25T07:52:33.800Z,46.5
2018-07-25T07:53:14.395Z,45.92
2018-07-25T07:53:55.060Z,45.84
2018-07-25T07:54:35.554Z,46.14
2018-07-25T07:55:16.119Z,45.36
2018-07-25T07:55:56.698Z,44.94
2018-07-25T07:56:37.266Z,45.23
2018-07-25T07:57:17.857Z,45.72
2018-07-25T07:57:58.440Z,45.04
2018-07-25T07:58:39.013Z,45.82
2018-07-25T07:59:19.636Z,44.94
2018-07-25T08:00:00.172Z,44.74
2018-07-25T08:00:40.755Z,44.74
2018-07-25T08:01:21.371Z,46.01
2018-07-25T08:02:02.036Z,46.8
2018-07-25T08:02:42.622Z,46.5
2018-07-25T08:03:23.231Z,45.72
2018-07-25T08:04:03.799Z,45.23
2018-07-25T08:04:44.390Z,45.04
2018-07-25T08:05:24.973Z,46.41
2018-07-25T08:06:05.552Z,46.21
2018-07-25T08:06:46.130Z,46.01
2018-07-25T08:07:26.719Z,46.5
2018-07-25T08:08:07.298Z,46.43
2018-07-25T08:08:47.878Z,45.62
2018-07-25T08:09:28.444Z,44.65
2018-07-25T08:10:09.038Z,41.64
2018-07-25T08:10:49.622Z,41.62
2018-07-25T08:11:30.191Z,43.87
2018-07-25T08:12:10.769Z,44.45
2018-07-25T08:12:51.346Z,44.94
2018-07-25T08:13:31.919Z,42.21
2018-07-25T08:14:12.480Z,43.08
2018-07-25T08:14:53.056Z,43.38
2018-07-25T08:15:33.637Z,44.65
2018-07-25T08:16:14.222Z,45.43
2018-07-25T08:16:54.800Z,46.41
2018-07-25T08:17:35.383Z,45.72
2018-07-25T08:18:15.945Z,45.62
2018-07-25T08:18:56.538Z,45.94
2018-07-25T08:19:37.113Z,46.6
2018-07-25T08:20:17.699Z,45.06
2018-07-25T08:20:58.380Z,44.96
2018-07-25T08:21:38.961Z,44.96
2018-07-25T08:22:19.486Z,45.16
2018-07-25T08:23:00.063Z,43.49
2018-07-25T08:23:40.665Z,42.71
2018-07-25T08:24:21.246Z,42.91
2018-07-25T08:25:01.812Z,42.71
2018-07-25T08:25:42.505Z,43.1
2018-07-25T08:26:23.028Z,42.71
2018-07-25T08:27:03.633Z,42.52
2018-07-25T08:27:44.179Z,44.28
2018-07-25T08:28:24.739Z,44.84
2018-07-25T08:29:05.326Z,45.26
2018-07-25T08:29:45.885Z,44.45
2018-07-25T08:30:26.461Z,44.94
2018-07-25T08:31:07.038Z,44.35
2018-07-25T08:31:47.626Z,45.04
2018-07-25T08:32:28.205Z,44.84
2018-07-25T08:33:08.799Z,46.43
2018-07-25T08:33:49.350Z,44.67
2018-07-25T08:34:29.956Z,44.77
2018-07-25T08:35:10.485Z,42.61
2018-07-25T08:35:51.060Z,41.93
2018-07-25T08:36:31.648Z,43.1
2018-07-25T08:37:12.231Z,44.09
2018-07-25T08:37:52.871Z,45.26
2018-07-25T08:38:33.452Z,44.67
2018-07-25T08:39:14.033Z,43.89
2018-07-25T08:39:54.624Z,43.4
2018-07-25T08:40:35.199Z,43.1
2018-07-25T08:41:15.872Z,42.99
2018-07-25T08:41:56.374Z,41.72
2018-07-25T08:42:36.944Z,42.11
2018-07-25T08:43:17.524Z,44.65
2018-07-25T08:43:58.094Z,45.06
2018-07-25T08:44:38.664Z,43.3
2018-07-25T08:45:19.243Z,44.26